Time;durP1;ratioP1;P1;durP2;ratioP2;P2;SDS_P1;SDS_P2;PMS_P1;PMS_P2;Temp;Humidity;BMP_temperature;BMP_pressure;BME280_temperature;BME280_humidity;BME280_pressure;Samples;Min_cycle;Max_cycle;Signal;HPM_P1;HPM_P2
2021/09/22 00:01:00;;;;;;;10.90;5.47;;;;;;;;;;5069030;28;20025;-66
2021/09/22 00:03:25;;;;;;;9.50;5.33;;;;;;;;;;5067518;28;20029;-67
2021/09/22 00:05:50;;;;;;;10.45;5.70;;;;;;;;;;5069077;28;20267;-66
2021/09/22 00:08:16;;;;;;;11.55;5.50;;;;;;;;;;5068946;28;20044;-66
2021/09/22 00:10:41;;;;;;;8.23;4.90;;;;;;;;;;5069442;28;20412;-66
2021/09/22 00:13:06;;;;;;;8.73;4.45;;;;;;;;;;5070530;28;20027;-66
2021/09/22 00:15:31;;;;;;;11.02;4.95;;;;;;;;;;5071559;28;20008;-66
2021/09/22 00:17:56;;;;;;;13.50;5.90;;;;;;;;;;5073207;28;20363;-67
2021/09/22 00:20:24;;;;;;;7.75;4.63;;;;;;;;;;5071328;28;20024;-66
2021/09/22 00:22:50;;;;;;;10.98;5.10;;;;;;;;;;5072984;28;20154;-64
2021/09/22 00:25:15;;;;;;;14.38;5.28;;;;;;;;;;5072478;28;20119;-65
2021/09/22 00:27:42;;;;;;;11.13;4.68;;;;;;;;;;5071682;28;20025;-66
2021/09/22 00:30:07;;;;;;;8.07;5.05;;;;;;;;;;5072283;28;20475;-67
2021/09/22 00:32:32;;;;;;;10.63;4.75;;;;;;;;;;5072933;28;20017;-66
2021/09/22 00:34:58;;;;;;;10.35;5.25;;;;;;;;;;5072037;28;20025;-65
2021/09/22 00:37:23;;;;;;;8.57;4.90;;;;;;;;;;5072238;28;20060;-66
2021/09/22 00:39:48;;;;;;;9.32;5.22;;;;;;;;;;5072449;28;20259;-67
2021/09/22 00:42:13;;;;;;;16.38;5.60;;;;;;;;;;5071829;28;20027;-66
2021/09/22 00:45:04;;;;;;;11.30;5.63;;;;;;;;;;5072151;28;20059;-66
2021/09/22 00:47:29;;;;;;;12.15;4.63;;;;;;;;;;5072212;28;20056;-66
2021/09/22 00:49:55;;;;;;;12.02;4.95;;;;;;;;;;5072519;28;20068;-66
2021/09/22 00:52:21;;;;;;;12.88;5.57;;;;;;;;;;5072077;28;20025;-65
2021/09/22 00:54:46;;;;;;;10.60;5.63;;;;;;;;;;5072693;28;20131;-67
2021/09/22 00:57:13;;;;;;;9.20;4.50;;;;;;;;;;5068308;28;20579;-67
2021/09/22 00:59:38;;;;;;;8.68;4.80;;;;;;;;;;5071540;28;20067;-66
2021/09/22 01:02:04;;;;;;;7.32;4.72;;;;;;;;;;5072343;28;20063;-66
2021/09/22 01:04:29;;;;;;;7.40;4.80;;;;;;;;;;5071886;28;20078;-66
2021/09/22 01:06:55;;;;;;;10.90;4.88;;;;;;;;;;5072438;28;20017;-65
2021/09/22 01:09:20;;;;;;;9.73;4.85;;;;;;;;;;5072535;28;20062;-66
2021/09/22 01:11:46;;;;;;;8.30;5.07;;;;;;;;;;5071059;28;20024;-65
2021/09/22 01:14:12;;;;;;;9.25;5.80;;;;;;;;;;5071537;28;20020;-66
2021/09/22 01:16:41;;;;;;;13.15;4.80;;;;;;;;;;5071471;28;20030;-66
2021/09/22 01:19:06;;;;;;;8.18;4.28;;;;;;;;;;5071182;28;20082;-66
2021/09/22 01:21:31;;;;;;;9.77;5.22;;;;;;;;;;5071963;28;20016;-65
2021/09/22 01:23:56;;;;;;;13.17;5.23;;;;;;;;;;5071273;28;20526;-66
2021/09/22 01:26:21;;;;;;;10.23;5.17;;;;;;;;;;5071852;28;20275;-65
2021/09/22 01:28:47;;;;;;;10.43;4.60;;;;;;;;;;5071294;28;20345;-66
2021/09/22 01:31:12;;;;;;;7.47;4.82;;;;;;;;;;5071528;28;20266;-65
2021/09/22 01:33:37;;;;;;;7.50;4.80;;;;;;;;;;5071187;28;20036;-66
2021/09/22 01:36:02;;;;;;;10.88;5.50;;;;;;;;;;5071281;28;20020;-65
2021/09/22 01:38:28;;;;;;;11.75;5.22;;;;;;;;;;5071764;28;20024;-66
2021/09/22 01:40:54;;;;;;;11.93;5.78;;;;;;;;;;5071921;28;20024;-66
2021/09/22 01:43:19;;;;;;;8.10;4.95;;;;;;;;;;5070480;28;20484;-67
2021/09/22 01:45:45;;;;;;;13.00;5.07;;;;;;;;;;5070924;28;20031;-66
2021/09/22 01:48:10;;;;;;;12.45;5.53;;;;;;;;;;5071149;28;20107;-66
2021/09/22 01:50:35;;;;;;;10.20;5.57;;;;;;;;;;5071127;28;20027;-66
2021/09/22 01:53:00;;;;;;;10.60;5.03;;;;;;;;;;5071362;28;20016;-66
2021/09/22 01:55:25;;;;;;;9.18;5.50;;;;;;;;;;5071231;28;20686;-66
2021/09/22 01:57:51;;;;;;;9.00;5.30;;;;;;;;;;5071391;28;20081;-66
2021/09/22 02:00:16;;;;;;;14.25;5.85;;;;;;;;;;5070252;28;20024;-66
2021/09/22 02:02:41;;;;;;;12.57;6.13;;;;;;;;;;5070933;28;20031;-66
2021/09/22 02:05:07;;;;;;;10.65;5.80;;;;;;;;;;5070320;28;20028;-66
2021/09/22 02:07:32;;;;;;;12.10;5.38;;;;;;;;;;5071237;28;20027;-66
2021/09/22 02:09:59;;;;;;;10.90;5.97;;;;;;;;;;5071030;28;20086;-66
2021/09/22 02:12:24;;;;;;;11.07;6.32;;;;;;;;;;5070531;28;20411;-67
2021/09/22 02:14:49;;;;;;;14.60;6.93;;;;;;;;;;5070840;28;20020;-65
2021/09/22 02:17:14;;;;;;;10.83;5.47;;;;;;;;;;5064103;28;20031;-66
2021/09/22 02:19:40;;;;;;;10.90;5.63;;;;;;;;;;5070628;28;20358;-66
2021/09/22 02:22:05;;;;;;;8.75;4.80;;;;;;;;;;5070427;28;20028;-66
2021/09/22 02:24:30;;;;;;;10.50;4.55;;;;;;;;;;5070465;28;20081;-66
2021/09/22 02:26:55;;;;;;;9.23;5.60;;;;;;;;;;5070407;28;20012;-65
2021/09/22 02:29:21;;;;;;;11.17;5.73;;;;;;;;;;5070136;28;20020;-66
2021/09/22 02:31:47;;;;;;;17.65;6.50;;;;;;;;;;5070064;28;20267;-66
2021/09/22 02:34:12;;;;;;;13.20;6.80;;;;;;;;;;5070509;28;20024;-64
2021/09/22 02:36:37;;;;;;;11.88;6.47;;;;;;;;;;5070497;28;20209;-66
2021/09/22 02:39:03;;;;;;;15.87;6.40;;;;;;;;;;5070241;28;20095;-65
2021/09/22 02:41:28;;;;;;;10.73;6.00;;;;;;;;;;5070261;28;20270;-66
2021/09/22 02:43:53;;;;;;;9.73;6.22;;;;;;;;;;5070147;28;20070;-66
2021/09/22 02:46:18;;;;;;;12.47;5.30;;;;;;;;;;5070103;28;20132;-66
2021/09/22 02:48:43;;;;;;;12.20;5.63;;;;;;;;;;5063790;28;20259;-65
2021/09/22 02:51:08;;;;;;;12.77;6.23;;;;;;;;;;5070483;28;20320;-66
2021/09/22 02:53:34;;;;;;;14.97;6.00;;;;;;;;;;5069633;28;20351;-66
2021/09/22 02:55:59;;;;;;;12.20;5.88;;;;;;;;;;5070050;28;20773;-66
2021/09/22 02:58:24;;;;;;;10.40;5.75;;;;;;;;;;5069729;28;20107;-66
2021/09/22 03:00:50;;;;;;;11.68;6.07;;;;;;;;;;5070087;28;20515;-65
2021/09/22 03:03:15;;;;;;;17.15;6.68;;;;;;;;;;5069466;28;20029;-66
2021/09/22 03:05:40;;;;;;;14.68;5.97;;;;;;;;;;5069296;28;20025;-65
2021/09/22 03:08:05;;;;;;;14.27;6.77;;;;;;;;;;5069139;28;20385;-65
2021/09/22 03:10:31;;;;;;;10.82;6.15;;;;;;;;;;5065424;28;20277;-65
2021/09/22 03:12:56;;;;;;;12.15;6.30;;;;;;;;;;5070044;28;20061;-65
2021/09/22 03:15:21;;;;;;;10.55;5.85;;;;;;;;;;5069446;28;20103;-64
2021/09/22 03:17:47;;;;;;;13.07;6.20;;;;;;;;;;5067385;28;20024;-64
2021/09/22 03:20:12;;;;;;;10.15;5.95;;;;;;;;;;5064123;28;20029;-65
2021/09/22 03:22:37;;;;;;;12.82;6.50;;;;;;;;;;5067084;28;20534;-65
2021/09/22 03:25:04;;;;;;;11.82;6.30;;;;;;;;;;5067730;28;20028;-65
2021/09/22 03:27:29;;;;;;;16.30;6.28;;;;;;;;;;5067683;28;20549;-65
2021/09/22 03:29:54;;;;;;;15.85;5.85;;;;;;;;;;5061639;28;20104;-67
2021/09/22 03:32:19;;;;;;;18.37;6.77;;;;;;;;;;5065806;28;20024;-64
2021/09/22 03:34:44;;;;;;;14.55;6.65;;;;;;;;;;5069871;28;20314;-67
2021/09/22 03:37:10;;;;;;;12.07;6.97;;;;;;;;;;5069253;28;20358;-64
2021/09/22 03:39:35;;;;;;;12.10;6.32;;;;;;;;;;5069139;28;20504;-66
2021/09/22 03:42:00;;;;;;;11.45;6.45;;;;;;;;;;5069389;28;20024;-65
2021/09/22 03:44:25;;;;;;;17.75;7.25;;;;;;;;;;5068671;28;20385;-68
2021/09/22 03:46:51;;;;;;;13.38;6.53;;;;;;;;;;5063316;28;20505;-66
2021/09/22 03:49:17;;;;;;;17.38;7.22;;;;;;;;;;5072474;28;20034;-67
2021/09/22 03:51:42;;;;;;;13.65;6.45;;;;;;;;;;5073001;28;20020;-67
2021/09/22 03:54:07;;;;;;;12.68;7.07;;;;;;;;;;5072951;28;20024;-65
2021/09/22 03:56:32;;;;;;;15.25;6.18;;;;;;;;;;5073137;28;20353;-65
2021/09/22 03:58:57;;;;;;;12.80;6.57;;;;;;;;;;5073208;28;20461;-65
2021/09/22 04:01:23;;;;;;;11.15;6.43;;;;;;;;;;5073629;28;20031;-67
2021/09/22 04:03:48;;;;;;;12.98;6.53;;;;;;;;;;5072992;28;20020;-65
2021/09/22 04:06:13;;;;;;;12.77;7.22;;;;;;;;;;5073122;28;20039;-66
2021/09/22 04:08:38;;;;;;;12.32;6.43;;;;;;;;;;5072772;28;20028;-64
2021/09/22 04:11:04;;;;;;;14.80;6.47;;;;;;;;;;5073580;28;20103;-65
2021/09/22 04:13:29;;;;;;;12.40;6.33;;;;;;;;;;5072205;28;20425;-65
2021/09/22 04:15:54;;;;;;;13.98;6.47;;;;;;;;;;5072867;28;20279;-65
2021/09/22 04:18:19;;;;;;;12.32;6.95;;;;;;;;;;5072390;28;20024;-64
2021/09/22 04:20:44;;;;;;;12.63;6.35;;;;;;;;;;5071788;28;20031;-65
2021/09/22 04:23:10;;;;;;;13.30;7.10;;;;;;;;;;5071685;28;20047;-67
2021/09/22 04:25:35;;;;;;;14.65;6.95;;;;;;;;;;5072675;28;20016;-65
2021/09/22 04:28:00;;;;;;;23.53;8.60;;;;;;;;;;5072506;28;20063;-65
2021/09/22 04:30:25;;;;;;;15.68;7.65;;;;;;;;;;5072542;28;20262;-65
2021/09/22 04:32:51;;;;;;;15.77;6.75;;;;;;;;;;5072076;28;20016;-64
2021/09/22 04:35:16;;;;;;;11.43;6.05;;;;;;;;;;5072921;28;20146;-65
2021/09/22 04:37:41;;;;;;;13.00;7.07;;;;;;;;;;5072317;28;20028;-65
2021/09/22 04:40:08;;;;;;;15.57;7.63;;;;;;;;;;5072355;28;20052;-66
2021/09/22 04:42:34;;;;;;;11.48;6.43;;;;;;;;;;5071662;28;20024;-65
2021/09/22 04:44:59;;;;;;;14.30;7.13;;;;;;;;;;5058614;28;20024;-65
2021/09/22 04:47:24;;;;;;;16.73;6.82;;;;;;;;;;5072130;28;20063;-67
2021/09/22 04:49:50;;;;;;;14.27;7.47;;;;;;;;;;5071906;28;20484;-64
2021/09/22 04:52:15;;;;;;;12.40;6.50;;;;;;;;;;5072270;28;20051;-66
2021/09/22 04:54:40;;;;;;;18.23;7.57;;;;;;;;;;5072035;28;20033;-65
2021/09/22 04:57:06;;;;;;;18.48;8.40;;;;;;;;;;5072183;28;20788;-65
2021/09/22 04:59:31;;;;;;;15.50;7.10;;;;;;;;;;5071207;28;20468;-64
2021/09/22 05:01:56;;;;;;;18.02;8.05;;;;;;;;;;5070510;28;20020;-65
2021/09/22 05:04:21;;;;;;;12.63;7.30;;;;;;;;;;5072524;28;20024;-66
2021/09/22 05:06:46;;;;;;;15.50;7.20;;;;;;;;;;5072113;28;20307;-64
2021/09/22 05:09:11;;;;;;;14.65;7.38;;;;;;;;;;5072108;28;20312;-65
2021/09/22 05:11:37;;;;;;;14.10;7.23;;;;;;;;;;5066082;28;20068;-65
2021/09/22 05:14:02;;;;;;;14.52;6.97;;;;;;;;;;5065696;28;20301;-65
2021/09/22 05:16:27;;;;;;;15.48;8.15;;;;;;;;;;5069161;28;20095;-66
2021/09/22 05:18:52;;;;;;;16.93;7.63;;;;;;;;;;5069486;28;20165;-65
2021/09/22 05:21:17;;;;;;;26.05;8.30;;;;;;;;;;5069580;28;20343;-65
2021/09/22 05:23:43;;;;;;;19.30;7.22;;;;;;;;;;5069154;28;20038;-62
2021/09/22 05:26:08;;;;;;;15.80;7.88;;;;;;;;;;5069422;28;20036;-65
2021/09/22 05:28:33;;;;;;;14.88;7.78;;;;;;;;;;5069091;28;20127;-66
2021/09/22 05:30:58;;;;;;;14.07;6.97;;;;;;;;;;5069527;28;20017;-65
2021/09/22 05:33:24;;;;;;;19.73;7.93;;;;;;;;;;5068263;28;20266;-66
2021/09/22 05:35:49;;;;;;;17.40;7.80;;;;;;;;;;5070472;28;20278;-65
2021/09/22 05:38:14;;;;;;;13.10;6.80;;;;;;;;;;5071092;28;20763;-66
2021/09/22 05:40:39;;;;;;;16.98;7.72;;;;;;;;;;5071120;28;20047;-65
2021/09/22 05:43:05;;;;;;;13.93;7.32;;;;;;;;;;5070973;28;20400;-67
2021/09/22 05:45:30;;;;;;;17.05;7.38;;;;;;;;;;5071383;28;20465;-64
2021/09/22 05:47:55;;;;;;;17.83;7.43;;;;;;;;;;5071293;28;20380;-65
2021/09/22 05:50:21;;;;;;;14.80;7.07;;;;;;;;;;5070990;28;20392;-65
2021/09/22 05:52:46;;;;;;;15.45;7.18;;;;;;;;;;5071107;28;20325;-65
2021/09/22 05:55:11;;;;;;;14.38;7.07;;;;;;;;;;5071320;28;20388;-66
2021/09/22 05:57:36;;;;;;;17.73;7.27;;;;;;;;;;5069501;28;20519;-65
2021/09/22 06:00:03;;;;;;;14.32;6.65;;;;;;;;;;5071156;28;20267;-66
2021/09/22 06:02:28;;;;;;;12.85;7.40;;;;;;;;;;5069863;28;20020;-65
2021/09/22 06:04:53;;;;;;;12.88;7.30;;;;;;;;;;5070434;28;20086;-65
2021/09/22 06:07:18;;;;;;;13.03;7.13;;;;;;;;;;5069719;28;20031;-67
2021/09/22 06:09:43;;;;;;;18.58;7.63;;;;;;;;;;5053232;28;20299;-64
2021/09/22 06:12:09;;;;;;;15.13;7.23;;;;;;;;;;5067507;28;20021;-66
2021/09/22 06:14:34;;;;;;;19.70;7.95;;;;;;;;;;5070064;28;20412;-66
2021/09/22 06:16:59;;;;;;;11.73;7.00;;;;;;;;;;5071156;28;20082;-65
2021/09/22 06:19:24;;;;;;;13.20;7.20;;;;;;;;;;5070974;28;20031;-62
2021/09/22 06:21:49;;;;;;;16.93;7.23;;;;;;;;;;5070952;28;20021;-65
2021/09/22 06:24:18;;;;;;;12.93;6.55;;;;;;;;;;5070741;28;20670;-63
2021/09/22 06:26:44;;;;;;;12.50;7.38;;;;;;;;;;5070877;28;20067;-63
2021/09/22 06:29:09;;;;;;;13.07;6.75;;;;;;;;;;5070736;28;20480;-63
2021/09/22 06:31:36;;;;;;;18.27;7.47;;;;;;;;;;5069092;28;20032;-64
2021/09/22 06:34:01;;;;;;;18.27;7.20;;;;;;;;;;5062373;28;20631;-63
2021/09/22 06:36:27;;;;;;;24.35;8.38;;;;;;;;;;5070426;28;20036;-68
2021/09/22 06:38:52;;;;;;;17.45;7.47;;;;;;;;;;5071278;28;20078;-65
2021/09/22 06:41:17;;;;;;;17.42;7.65;;;;;;;;;;5070776;28;20434;-67
2021/09/22 06:43:42;;;;;;;13.93;7.57;;;;;;;;;;5070589;28;20035;-64
2021/09/22 06:46:07;;;;;;;14.20;7.97;;;;;;;;;;5070881;28;20262;-66
2021/09/22 06:48:32;;;;;;;19.17;8.70;;;;;;;;;;5070921;28;20682;-65
2021/09/22 06:50:58;;;;;;;15.05;7.70;;;;;;;;;;5070384;28;20025;-66
2021/09/22 06:53:23;;;;;;;18.60;8.03;;;;;;;;;;5070473;28;20492;-64
2021/09/22 06:55:48;;;;;;;15.15;7.63;;;;;;;;;;5070301;28;20294;-67
2021/09/22 06:58:13;;;;;;;15.60;8.00;;;;;;;;;;5070477;28;20066;-66
2021/09/22 07:00:39;;;;;;;12.20;7.30;;;;;;;;;;5070637;28;20108;-66
2021/09/22 07:03:11;;;;;;;16.67;8.10;;;;;;;;;;5070285;28;20254;-65
2021/09/22 07:05:36;;;;;;;15.32;7.88;;;;;;;;;;5070511;28;20025;-65
2021/09/22 07:08:01;;;;;;;14.40;8.27;;;;;;;;;;5070023;28;20495;-66
2021/09/22 07:10:31;;;;;;;16.87;8.80;;;;;;;;;;5070391;28;20036;-65
2021/09/22 07:12:56;;;;;;;15.70;8.90;;;;;;;;;;5070318;28;20251;-63
2021/09/22 07:15:21;;;;;;;18.77;9.13;;;;;;;;;;5070569;28;20039;-63
2021/09/22 07:17:46;;;;;;;16.63;9.20;;;;;;;;;;5070722;28;20016;-63
2021/09/22 07:20:12;;;;;;;15.40;9.00;;;;;;;;;;5070577;28;20341;-65
2021/09/22 07:22:37;;;;;;;13.80;8.05;;;;;;;;;;5070061;28;20273;-65
2021/09/22 07:25:03;;;;;;;19.55;9.50;;;;;;;;;;5070515;28;20052;-67
2021/09/22 07:27:28;;;;;;;13.10;7.65;;;;;;;;;;5070126;28;20649;-62
2021/09/22 07:29:55;;;;;;;12.75;6.90;;;;;;;;;;5070122;28;20059;-63
2021/09/22 07:32:20;;;;;;;9.43;6.47;;;;;;;;;;5069694;28;20021;-63
2021/09/22 07:34:45;;;;;;;16.30;7.53;;;;;;;;;;5070523;28;20020;-64
2021/09/22 07:37:11;;;;;;;17.23;7.03;;;;;;;;;;5070293;28;20695;-63
2021/09/22 07:39:38;;;;;;;13.63;7.00;;;;;;;;;;5070108;28;20097;-63
2021/09/22 07:42:03;;;;;;;12.57;6.38;;;;;;;;;;5068526;28;20056;-62
2021/09/22 07:44:28;;;;;;;12.23;6.30;;;;;;;;;;5069587;28;20052;-63
2021/09/22 07:46:53;;;;;;;11.55;6.63;;;;;;;;;;5070161;28;20035;-63
2021/09/22 07:49:18;;;;;;;15.80;7.13;;;;;;;;;;5070100;28;20021;-63
2021/09/22 07:51:44;;;;;;;11.57;7.43;;;;;;;;;;5068743;28;20302;-63
2021/09/22 07:54:09;;;;;;;14.10;8.20;;;;;;;;;;5069591;28;20054;-63
2021/09/22 07:56:34;;;;;;;14.77;8.60;;;;;;;;;;5070325;28;20028;-63
2021/09/22 07:58:59;;;;;;;15.00;7.63;;;;;;;;;;5069562;28;20596;-65
2021/09/22 08:01:25;;;;;;;17.77;8.30;;;;;;;;;;5070250;28;20269;-63
2021/09/22 08:03:50;;;;;;;17.23;8.82;;;;;;;;;;5069837;28;20374;-64
2021/09/22 08:06:15;;;;;;;14.75;8.45;;;;;;;;;;5069942;28;20052;-65
2021/09/22 08:08:40;;;;;;;17.30;7.43;;;;;;;;;;5070526;28;20058;-65
2021/09/22 08:11:05;;;;;;;20.27;8.33;;;;;;;;;;5070422;28;20334;-63
2021/09/22 08:13:30;;;;;;;22.63;8.52;;;;;;;;;;5069779;28;20758;-64
2021/09/22 08:15:56;;;;;;;14.75;9.20;;;;;;;;;;5067885;28;20028;-63
2021/09/22 08:18:21;;;;;;;17.97;9.40;;;;;;;;;;5068912;28;20035;-63
2021/09/22 08:20:46;;;;;;;16.60;9.57;;;;;;;;;;5069356;28;20263;-63
2021/09/22 08:23:11;;;;;;;21.60;9.60;;;;;;;;;;5069387;28;20328;-63
2021/09/22 08:25:36;;;;;;;13.93;9.27;;;;;;;;;;5069996;28;20024;-65
2021/09/22 08:28:02;;;;;;;14.13;8.20;;;;;;;;;;5069633;28;20832;-64
2021/09/22 08:30:27;;;;;;;16.60;9.32;;;;;;;;;;5069492;28;20271;-63
2021/09/22 08:32:52;;;;;;;16.03;9.63;;;;;;;;;;5069596;28;20017;-64
2021/09/22 08:35:17;;;;;;;18.10;9.57;;;;;;;;;;5072283;28;20698;-63
2021/09/22 08:37:43;;;;;;;15.57;8.70;;;;;;;;;;5072983;28;20279;-63
2021/09/22 08:40:09;;;;;;;19.95;11.30;;;;;;;;;;5073052;28;20355;-63
2021/09/22 08:42:34;;;;;;;17.35;9.50;;;;;;;;;;5073111;28;20103;-63
2021/09/22 08:44:59;;;;;;;15.98;9.27;;;;;;;;;;5072834;28;20034;-63
2021/09/22 08:47:25;;;;;;;15.83;8.40;;;;;;;;;;5072830;28;20444;-63
2021/09/22 08:49:51;;;;;;;16.77;9.57;;;;;;;;;;5072814;28;20350;-63
2021/09/22 08:52:16;;;;;;;15.73;9.25;;;;;;;;;;5073010;28;20415;-63
2021/09/22 08:54:42;;;;;;;19.23;9.15;;;;;;;;;;5073164;28;20020;-63
2021/09/22 08:57:07;;;;;;;19.60;9.88;;;;;;;;;;5073222;28;20420;-64
2021/09/22 08:59:32;;;;;;;15.25;9.00;;;;;;;;;;5073112;28;20035;-64
2021/09/22 09:02:11;;;;;;;16.37;8.97;;;;;;;;;;5072574;28;20035;-64
2021/09/22 09:04:37;;;;;;;19.67;8.77;;;;;;;;;;5072653;28;20289;-64
2021/09/22 09:07:03;;;;;;;16.15;8.82;;;;;;;;;;5072618;28;20012;-64
2021/09/22 09:09:32;;;;;;;21.17;10.55;;;;;;;;;;5072800;28;20381;-64
2021/09/22 09:11:57;;;;;;;20.67;8.63;;;;;;;;;;5072487;28;20365;-65
2021/09/22 09:14:23;;;;;;;15.57;8.50;;;;;;;;;;5072379;28;20024;-65
2021/09/22 09:16:49;;;;;;;18.17;10.27;;;;;;;;;;5061149;28;20267;-65
2021/09/22 09:19:18;;;;;;;25.27;9.60;;;;;;;;;;5072187;28;20561;-65
2021/09/22 09:21:55;;;;;;;21.17;9.13;;;;;;;;;;5062341;28;20079;-63
2021/09/22 09:24:38;;;;;;;17.95;9.00;;;;;;;;;;5071506;28;20054;-64
2021/09/22 09:27:04;;;;;;;21.35;8.98;;;;;;;;;;5072066;28;20095;-65
2021/09/22 09:29:29;;;;;;;20.02;8.93;;;;;;;;;;5072138;28;20027;-64
2021/09/22 09:32:13;;;;;;;19.25;9.63;;;;;;;;;;5071936;28;20029;-65
2021/09/22 09:34:55;;;;;;;16.70;9.27;;;;;;;;;;5072029;28;20028;-64
2021/09/22 09:37:27;;;;;;;18.98;10.00;;;;;;;;;;5071703;28;20028;-65
2021/09/22 09:39:52;;;;;;;19.77;9.40;;;;;;;;;;5072175;28;20107;-65
2021/09/22 09:42:19;;;;;;;18.88;10.57;;;;;;;;;;5071701;28;20099;-64
2021/09/22 09:44:47;;;;;;;22.48;10.65;;;;;;;;;;5071801;28;20032;-65
2021/09/22 09:47:12;;;;;;;20.33;8.73;;;;;;;;;;5071389;28;20020;-64
2021/09/22 09:49:40;;;;;;;19.63;9.85;;;;;;;;;;5071831;28;20039;-65
2021/09/22 09:52:05;;;;;;;28.25;11.82;;;;;;;;;;5071524;28;20017;-65
2021/09/22 09:54:37;;;;;;;21.73;10.45;;;;;;;;;;5071331;28;20031;-65
2021/09/22 09:57:13;;;;;;;20.08;10.48;;;;;;;;;;5071920;28;20027;-65
2021/09/22 09:59:45;;;;;;;21.60;9.75;;;;;;;;;;5071377;28;20127;-65
2021/09/22 10:02:28;;;;;;;16.58;10.05;;;;;;;;;;5071346;28;20062;-65
2021/09/22 10:04:53;;;;;;;24.45;11.43;;;;;;;;;;5066080;28;20031;-64
2021/09/22 10:07:19;;;;;;;19.98;9.88;;;;;;;;;;5071591;28;20032;-65
2021/09/22 10:09:44;;;;;;;18.50;10.10;;;;;;;;;;5071519;28;20096;-65
2021/09/22 10:12:10;;;;;;;16.00;7.38;;;;;;;;;;5071399;28;20366;-64
2021/09/22 10:14:36;;;;;;;22.50;11.93;;;;;;;;;;5071310;28;20024;-65
2021/09/22 10:17:01;;;;;;;27.45;8.65;;;;;;;;;;5070794;28;20020;-65
2021/09/22 10:19:27;;;;;;;18.83;10.73;;;;;;;;;;5071050;28;20091;-64
2021/09/22 10:21:52;;;;;;;19.55;10.75;;;;;;;;;;5071325;28;20029;-65
2021/09/22 10:24:19;;;;;;;23.80;10.60;;;;;;;;;;5071323;28;20392;-65
2021/09/22 10:26:45;;;;;;;20.70;11.20;;;;;;;;;;5071426;28;20900;-66
2021/09/22 10:29:20;;;;;;;19.83;11.30;;;;;;;;;;5071632;28;20070;-65
2021/09/22 10:31:46;;;;;;;19.67;12.02;;;;;;;;;;5070881;28;20062;-65
2021/09/22 10:34:24;;;;;;;29.80;12.30;;;;;;;;;;5070799;28;20161;-66
2021/09/22 10:36:49;;;;;;;21.70;12.35;;;;;;;;;;5071141;28;20251;-66
2021/09/22 10:39:39;;;;;;;21.23;12.30;;;;;;;;;;5070717;28;20411;-65
2021/09/22 10:42:37;;;;;;;18.67;11.05;;;;;;;;;;5070810;28;20759;-64
2021/09/22 10:45:11;;;;;;;20.48;10.48;;;;;;;;;;5066684;28;20481;-65
2021/09/22 10:47:36;;;;;;;18.27;10.32;;;;;;;;;;5070482;28;20065;-65
2021/09/22 10:50:01;;;;;;;21.42;11.23;;;;;;;;;;5070634;28;20111;-65
2021/09/22 10:52:37;;;;;;;25.97;12.00;;;;;;;;;;5070192;28;20040;-65
2021/09/22 10:55:09;;;;;;;20.77;10.73;;;;;;;;;;5070295;28;20298;-65
2021/09/22 10:57:35;;;;;;;19.33;11.45;;;;;;;;;;5069745;28;20024;-65
2021/09/22 11:00:07;;;;;;;24.25;13.75;;;;;;;;;;5070386;28;20047;-64
2021/09/22 11:02:44;;;;;;;21.23;11.27;;;;;;;;;;5070052;28;20540;-65
2021/09/22 11:05:09;;;;;;;20.33;12.00;;;;;;;;;;5070601;28;20032;-65
2021/09/22 11:07:53;;;;;;;18.83;12.52;;;;;;;;;;5070266;28;20025;-65
2021/09/22 11:10:30;;;;;;;22.00;12.15;;;;;;;;;;5070560;28;20028;-64
2021/09/22 11:13:15;;;;;;;18.85;10.60;;;;;;;;;;5070497;28;20552;-65
2021/09/22 11:15:40;;;;;;;22.92;12.00;;;;;;;;;;5070153;28;20040;-65
2021/09/22 11:18:06;;;;;;;18.92;10.98;;;;;;;;;;5070535;28;20025;-65
2021/09/22 11:20:31;;;;;;;21.33;11.07;;;;;;;;;;5070320;28;20024;-65
2021/09/22 11:23:05;;;;;;;22.98;11.05;;;;;;;;;;5069672;28;20024;-65
2021/09/22 11:25:31;;;;;;;19.58;11.45;;;;;;;;;;5069938;28;20370;-65
2021/09/22 11:28:02;;;;;;;18.73;10.27;;;;;;;;;;5071112;28;20095;-65
2021/09/22 11:30:27;;;;;;;24.60;12.95;;;;;;;;;;5069913;28;20066;-65
2021/09/22 11:32:53;;;;;;;22.67;12.02;;;;;;;;;;5070100;28;20424;-65
2021/09/22 11:35:19;;;;;;;20.27;12.10;;;;;;;;;;5068467;28;20384;-66
2021/09/22 11:37:52;;;;;;;25.08;11.70;;;;;;;;;;5070098;28;20032;-65
2021/09/22 11:40:20;;;;;;;25.17;10.95;;;;;;;;;;5070001;28;20024;-64
2021/09/22 11:43:00;;;;;;;27.80;11.43;;;;;;;;;;5053737;28;20162;-66
2021/09/22 11:45:49;;;;;;;21.48;11.23;;;;;;;;;;5069547;28;20501;-67
2021/09/22 11:48:24;;;;;;;17.60;9.48;;;;;;;;;;5067058;28;20028;-65
2021/09/22 11:50:49;;;;;;;16.67;9.43;;;;;;;;;;5069297;28;20090;-65
2021/09/22 11:53:16;;;;;;;17.60;9.63;;;;;;;;;;5069849;28;20052;-65
2021/09/22 11:55:43;;;;;;;20.15;10.30;;;;;;;;;;5069947;28;20275;-64
2021/09/22 11:58:09;;;;;;;19.15;11.05;;;;;;;;;;5070124;28;20070;-65
2021/09/22 12:00:35;;;;;;;25.08;10.63;;;;;;;;;;5069989;28;20476;-65
2021/09/22 12:03:04;;;;;;;24.30;11.10;;;;;;;;;;5067877;28;20025;-66
2021/09/22 12:05:29;;;;;;;15.97;8.33;;;;;;;;;;5062883;28;20433;-66
2021/09/22 12:07:55;;;;;;;19.10;9.98;;;;;;;;;;5049690;28;20140;-65
2021/09/22 12:10:21;;;;;;;21.30;10.27;;;;;;;;;;5053124;28;20100;-66
2021/09/22 12:12:46;;;;;;;19.60;12.10;;;;;;;;;;5071590;28;20500;-66
2021/09/22 12:15:12;;;;;;;21.42;12.93;;;;;;;;;;5073550;28;20024;-65
2021/09/22 12:17:39;;;;;;;24.00;11.55;;;;;;;;;;5073355;28;20140;-65
2021/09/22 12:20:07;;;;;;;23.10;12.85;;;;;;;;;;5071664;28;20313;-66
2021/09/22 12:22:34;;;;;;;24.27;12.65;;;;;;;;;;5073132;28;20062;-65
2021/09/22 12:24:59;;;;;;;26.95;13.13;;;;;;;;;;5073182;28;20476;-65
2021/09/22 12:27:27;;;;;;;22.50;11.60;;;;;;;;;;5073321;28;20020;-65
2021/09/22 12:30:07;;;;;;;25.10;10.35;;;;;;;;;;5072883;28;20020;-66
2021/09/22 12:32:33;;;;;;;20.25;8.43;;;;;;;;;;5072702;28;20012;-65
2021/09/22 12:35:03;;;;;;;20.75;11.65;;;;;;;;;;5073677;28;20051;-66
2021/09/22 12:37:29;;;;;;;19.83;11.80;;;;;;;;;;5073160;28;20048;-66
2021/09/22 12:39:56;;;;;;;25.77;11.32;;;;;;;;;;5072887;28;20120;-66
2021/09/22 12:42:22;;;;;;;16.42;9.82;;;;;;;;;;5073056;28;20206;-66
2021/09/22 12:44:51;;;;;;;29.48;12.68;;;;;;;;;;5073017;28;20038;-66
2021/09/22 12:47:16;;;;;;;25.55;10.98;;;;;;;;;;5072856;28;20021;-65
2021/09/22 12:49:43;;;;;;;18.70;10.87;;;;;;;;;;5072331;28;20362;-66
2021/09/22 12:52:19;;;;;;;24.00;12.07;;;;;;;;;;5072504;28;20259;-64
2021/09/22 12:54:45;;;;;;;20.60;12.18;;;;;;;;;;5072801;28;20028;-65
2021/09/22 12:57:12;;;;;;;24.88;13.02;;;;;;;;;;5072675;28;20383;-65
2021/09/22 12:59:37;;;;;;;28.27;12.15;;;;;;;;;;5071194;28;20032;-65
2021/09/22 13:02:02;;;;;;;21.50;11.52;;;;;;;;;;5072244;28;20267;-65
2021/09/22 13:04:28;;;;;;;19.98;10.77;;;;;;;;;;5071748;28;20029;-65
2021/09/22 13:06:57;;;;;;;23.13;12.07;;;;;;;;;;5072797;28;20431;-66
2021/09/22 13:09:30;;;;;;;17.75;9.82;;;;;;;;;;5072609;28;20020;-65
2021/09/22 13:11:55;;;;;;;22.13;10.50;;;;;;;;;;5072035;28;20513;-66
2021/09/22 13:14:20;;;;;;;22.55;9.52;;;;;;;;;;5072343;28;20149;-65
2021/09/22 13:16:56;;;;;;;16.35;9.35;;;;;;;;;;5071929;28;20142;-66
2021/09/22 13:19:22;;;;;;;18.10;10.27;;;;;;;;;;5068248;28;20108;-65
2021/09/22 13:21:48;;;;;;;20.48;10.10;;;;;;;;;;5071944;28;20489;-66
2021/09/22 13:24:15;;;;;;;25.00;11.73;;;;;;;;;;5072287;28;20030;-65
2021/09/22 13:26:41;;;;;;;19.13;10.85;;;;;;;;;;5072140;28;20465;-66
2021/09/22 13:29:07;;;;;;;23.27;10.65;;;;;;;;;;5072425;28;20120;-66
2021/09/22 13:31:33;;;;;;;19.08;10.07;;;;;;;;;;5072487;28;20013;-66
2021/09/22 13:33:59;;;;;;;22.13;10.75;;;;;;;;;;5071740;28;20024;-66
2021/09/22 13:36:25;;;;;;;22.23;10.02;;;;;;;;;;5071949;28;20023;-65
2021/09/22 13:38:51;;;;;;;23.63;11.18;;;;;;;;;;5071449;28;20104;-65
2021/09/22 13:41:16;;;;;;;26.25;11.93;;;;;;;;;;5072004;28;20028;-65
2021/09/22 13:43:41;;;;;;;24.95;10.23;;;;;;;;;;5071768;28;20027;-66
2021/09/22 13:46:07;;;;;;;22.70;10.27;;;;;;;;;;5071654;28;20035;-65
2021/09/22 13:48:33;;;;;;;18.70;10.00;;;;;;;;;;5071953;28;20025;-66
2021/09/22 13:50:58;;;;;;;24.30;11.52;;;;;;;;;;5071493;28;20052;-66
2021/09/22 13:53:23;;;;;;;23.30;12.27;;;;;;;;;;5071676;28;20370;-66
2021/09/22 13:55:49;;;;;;;25.73;11.43;;;;;;;;;;5071528;28;20081;-65
2021/09/22 13:58:14;;;;;;;25.83;10.65;;;;;;;;;;5071755;28;20052;-66
2021/09/22 14:00:40;;;;;;;22.52;10.75;;;;;;;;;;5071299;28;20035;-65
2021/09/22 14:03:06;;;;;;;20.60;10.90;;;;;;;;;;5071117;28;20032;-66
2021/09/22 14:05:32;;;;;;;18.48;10.35;;;;;;;;;;5071044;28;20024;-67
2021/09/22 14:08:01;;;;;;;23.02;10.82;;;;;;;;;;5070980;28;20025;-65
2021/09/22 14:10:27;;;;;;;20.93;9.23;;;;;;;;;;5071219;28;20016;-65
2021/09/22 14:12:59;;;;;;;20.83;10.15;;;;;;;;;;5068928;28;20492;-67
2021/09/22 14:15:24;;;;;;;22.80;11.13;;;;;;;;;;5070988;28;20520;-66
2021/09/22 14:17:50;;;;;;;28.17;11.43;;;;;;;;;;5071134;28;20111;-67
2021/09/22 14:20:15;;;;;;;19.85;9.45;;;;;;;;;;5071002;28;20400;-64
2021/09/22 14:22:40;;;;;;;33.97;11.47;;;;;;;;;;5071000;28;20069;-67